createdAt,value
2023-03-24T00:01:27.075Z,3.92
2023-03-24T00:03:55.080Z,3.87
2023-03-24T00:06:23.554Z,3.88
2023-03-24T00:08:51.615Z,3.84
2023-03-24T00:11:23.467Z,3.95
2023-03-24T00:13:51.317Z,3.96
2023-03-24T00:16:20.145Z,3.94
2023-03-24T00:18:53.968Z,3.92
2023-03-24T00:21:26.137Z,3.73
2023-03-24T00:23:56.176Z,3.70
2023-03-24T00:26:25.760Z,3.66
2023-03-24T00:28:55.413Z,3.75
2023-03-24T00:31:24.861Z,3.78
2023-03-24T00:33:55.431Z,3.60
2023-03-24T00:36:26.006Z,3.63
2023-03-24T00:38:56.951Z,3.54
2023-03-24T00:41:27.322Z,3.76
2023-03-24T00:44:00.646Z,3.79
2023-03-24T00:46:29.453Z,3.83
2023-03-24T00:49:07.566Z,3.82
2023-03-24T00:51:39.325Z,3.85
2023-03-24T00:54:09.560Z,3.68
2023-03-24T00:56:40.964Z,3.45
2023-03-24T00:59:10.977Z,3.25
2023-03-24T01:01:41.368Z,3.17
2023-03-24T01:04:10.748Z,3.31
2023-03-24T01:06:38.845Z,3.33
2023-03-24T01:09:07.718Z,3.36
2023-03-24T01:11:40.293Z,3.55
2023-03-24T01:14:09.945Z,3.59
2023-03-24T01:16:38.179Z,3.51
2023-03-24T01:19:07.409Z,3.31
2023-03-24T01:21:37.117Z,3.02
2023-03-24T01:24:05.661Z,3.14
2023-03-24T01:26:33.648Z,3.05
2023-03-24T01:29:01.878Z,3.30
2023-03-24T01:31:29.764Z,3.50
2023-03-24T01:33:57.663Z,3.46
2023-03-24T01:36:25.718Z,3.59
2023-03-24T01:38:53.576Z,3.61
2023-03-24T01:41:21.690Z,3.80
2023-03-24T01:43:50.549Z,3.70
2023-03-24T01:46:20.706Z,3.78
2023-03-24T01:49:00.129Z,3.82
2023-03-24T01:51:36.099Z,3.87
2023-03-24T01:54:14.941Z,3.92
2023-03-24T01:56:53.773Z,3.67
2023-03-24T01:59:27.509Z,3.71
2023-03-24T02:02:14.015Z,3.62
2023-03-24T02:04:54.354Z,3.62
2023-03-24T02:07:42.224Z,3.68
2023-03-24T02:10:14.279Z,3.43
2023-03-24T02:12:43.829Z,3.58
2023-03-24T02:15:14.955Z,3.72
2023-03-24T02:18:19.337Z,3.67
2023-03-24T02:21:14.919Z,3.72
2023-03-24T02:24:24.537Z,3.77
2023-03-24T02:27:07.552Z,3.80
2023-03-24T02:29:57.074Z,3.74
2023-03-24T02:32:31.123Z,3.80
2023-03-24T02:35:26.800Z,3.98
2023-03-24T02:38:13.533Z,4.00
2023-03-24T02:40:44.785Z,4.12
2023-03-24T02:43:36.112Z,4.19
2023-03-24T02:46:22.993Z,4.12
2023-03-24T02:48:51.852Z,4.03
2023-03-24T02:51:30.976Z,4.00
2023-03-24T02:56:54.372Z,3.80
2023-03-24T02:59:49.654Z,3.75
2023-03-24T03:03:06.075Z,3.65
2023-03-24T03:05:33.885Z,3.77
2023-03-24T03:08:04.962Z,3.94
2023-03-24T03:10:38.646Z,3.68
2023-03-24T03:13:13.245Z,3.55
2023-03-24T03:15:48.665Z,3.60
2023-03-24T03:18:32.375Z,3.84
2023-03-24T03:21:09.252Z,3.88
2023-03-24T03:23:51.717Z,3.75
2023-03-24T03:26:24.319Z,3.92
2023-03-24T03:28:58.297Z,3.96
2023-03-24T03:31:35.059Z,4.11
2023-03-24T03:34:31.367Z,4.02
2023-03-24T03:37:23.358Z,4.23
2023-03-24T03:40:01.543Z,4.32
2023-03-24T03:42:31.737Z,4.35
2023-03-24T03:45:05.674Z,4.40
2023-03-24T03:47:34.579Z,4.36
2023-03-24T03:50:06.294Z,4.41
2023-03-24T03:52:37.680Z,4.32
2023-03-24T03:55:07.224Z,4.22
2023-03-24T03:57:36.603Z,4.27
2023-03-24T04:00:24.134Z,4.32
2023-03-24T04:03:37.323Z,4.45
2023-03-24T04:06:14.758Z,4.53
2023-03-24T04:09:01.799Z,4.52
2023-03-24T04:12:11.854Z,4.53
2023-03-24T04:15:09.723Z,4.48
2023-03-24T04:18:25.220Z,4.49
2023-03-24T04:21:33.866Z,4.58
2023-03-24T04:24:34.950Z,4.63
2023-03-24T04:27:22.285Z,4.65
2023-03-24T04:30:10.348Z,4.76
2023-03-24T04:33:18.282Z,4.83
2023-03-24T04:35:58.222Z,4.91
2023-03-24T04:38:38.549Z,4.84
2023-03-24T04:41:43.429Z,4.88
2023-03-24T04:44:25.589Z,4.85
2023-03-24T04:47:27.250Z,4.97
2023-03-24T04:50:11.653Z,4.98
2023-03-24T04:52:42.284Z,5.02
2023-03-24T04:55:33.247Z,4.82
2023-03-24T04:58:01.993Z,4.56
2023-03-24T05:00:31.452Z,4.52
2023-03-24T05:02:59.454Z,4.64
2023-03-24T05:05:28.821Z,4.81
2023-03-24T05:08:00.460Z,4.75
2023-03-24T05:10:29.382Z,4.64
2023-03-24T05:12:58.541Z,4.56
2023-03-24T05:15:35.689Z,4.43
2023-03-24T05:18:25.135Z,4.40
2023-03-24T05:20:54.121Z,4.74
2023-03-24T05:23:23.319Z,4.87
2023-03-24T05:25:51.926Z,4.76
2023-03-24T05:28:23.735Z,4.76
2023-03-24T05:30:55.789Z,4.98
2023-03-24T05:33:38.930Z,4.79
2023-03-24T05:36:07.410Z,4.74
2023-03-24T05:38:35.993Z,4.45
2023-03-24T05:41:04.372Z,4.55
2023-03-24T05:43:36.784Z,4.96
2023-03-24T05:46:13.931Z,4.95
2023-03-24T05:48:42.407Z,4.96
2023-03-24T05:51:21.461Z,5.04
2023-03-24T05:53:58.825Z,4.80
2023-03-24T05:56:33.271Z,4.62
2023-03-24T05:59:23.056Z,4.50
2023-03-24T06:01:57.057Z,4.76
2023-03-24T06:04:57.794Z,4.84
2023-03-24T06:07:30.921Z,4.98
2023-03-24T06:10:03.716Z,5.22
2023-03-24T06:12:42.052Z,5.23
2023-03-24T06:15:10.803Z,5.50
2023-03-24T06:17:38.984Z,5.69
2023-03-24T06:20:18.919Z,5.84
2023-03-24T06:23:07.039Z,5.39
2023-03-24T06:26:01.952Z,5.40
2023-03-24T06:28:34.753Z,5.73
2023-03-24T06:31:18.742Z,5.75
2023-03-24T06:33:47.845Z,5.47
2023-03-24T06:36:16.547Z,5.23
2023-03-24T06:38:45.759Z,5.40
2023-03-24T06:41:17.970Z,5.65
2023-03-24T06:43:47.504Z,5.93
2023-03-24T06:46:15.712Z,6.26
2023-03-24T06:48:47.404Z,6.63
2023-03-24T06:51:15.581Z,6.33
2023-03-24T06:53:45.938Z,6.49
2023-03-24T06:56:17.847Z,6.77
2023-03-24T06:58:51.797Z,7.03
2023-03-24T07:01:27.086Z,7.25
2023-03-24T07:04:18.584Z,7.36
2023-03-24T07:06:58.627Z,7.54
2023-03-24T07:09:34.981Z,7.72
2023-03-24T07:12:03.850Z,7.69
2023-03-24T07:14:32.204Z,8.85
2023-03-24T07:17:02.638Z,10.59
2023-03-24T07:19:42.559Z,13.42
2023-03-24T07:22:33.580Z,16.05
2023-03-24T07:25:20.256Z,19.09
2023-03-24T07:27:56.670Z,20.42
2023-03-24T07:30:37.344Z,21.43
2023-03-24T07:33:12.846Z,22.55
2023-03-24T07:35:44.360Z,23.23
2023-03-24T07:38:13.177Z,24.77
2023-03-24T07:40:41.387Z,25.10
2023-03-24T07:43:09.435Z,26.15
2023-03-24T07:46:00.902Z,26.38
2023-03-24T07:48:30.023Z,27.69
2023-03-24T07:50:57.991Z,28.16
2023-03-24T07:53:45.832Z,28.92
2023-03-24T07:56:17.161Z,28.65
2023-03-24T07:58:53.109Z,28.78
2023-03-24T08:01:37.121Z,29.79
2023-03-24T08:04:12.368Z,29.11
2023-03-24T08:07:05.511Z,28.66
2023-03-24T08:09:33.487Z,29.13
2023-03-24T08:12:09.989Z,29.38
2023-03-24T08:14:45.900Z,30.02
2023-03-24T08:17:13.794Z,30.99
2023-03-24T08:19:56.173Z,31.26
2023-03-24T08:22:27.963Z,31.55
2023-03-24T08:32:36.292Z,32.33
2023-03-24T08:35:05.290Z,31.92
2023-03-24T08:37:33.293Z,31.78
2023-03-24T08:40:05.621Z,32.51
2023-03-24T08:42:33.724Z,32.47
2023-03-24T08:45:02.201Z,32.48
2023-03-24T08:47:30.265Z,32.71
2023-03-24T08:50:01.597Z,32.32
2023-03-24T08:52:30.008Z,32.65
2023-03-24T08:54:57.861Z,32.11
2023-03-24T08:57:26.323Z,33.31
2023-03-24T08:59:54.782Z,34.06
2023-03-24T09:02:22.927Z,34.55
2023-03-24T09:04:54.174Z,34.48
2023-03-24T09:07:22.538Z,33.80
2023-03-24T09:09:50.525Z,33.28
2023-03-24T09:12:18.432Z,31.03
2023-03-24T09:14:50.660Z,30.85
2023-03-24T09:17:19.147Z,30.58
2023-03-24T09:19:47.585Z,29.72
2023-03-24T09:22:15.788Z,29.23
2023-03-24T09:24:44.630Z,28.28
2023-03-24T09:27:12.564Z,28.31
2023-03-24T09:29:40.844Z,28.19
2023-03-24T09:32:09.022Z,28.24
2023-03-24T09:34:38.524Z,27.35
2023-03-24T09:37:06.386Z,27.74
2023-03-24T09:39:36.825Z,28.16
2023-03-24T09:42:07.239Z,28.28
2023-03-24T09:44:43.600Z,28.17
2023-03-24T09:47:26.948Z,29.20
2023-03-24T09:49:58.116Z,29.19
2023-03-24T09:52:38.377Z,29.89
2023-03-24T09:55:12.342Z,30.22
2023-03-24T09:57:43.764Z,29.51
2023-03-24T10:00:18.317Z,28.48
2023-03-24T10:02:47.703Z,29.90
2023-03-24T10:05:32.763Z,28.70
2023-03-24T10:08:03.776Z,28.06
2023-03-24T10:10:46.921Z,27.56
2023-03-24T10:13:27.889Z,25.27
2023-03-24T10:16:13.400Z,25.08
2023-03-24T10:19:05.229Z,24.77
2023-03-24T10:23:39.578Z,23.95
2023-03-24T10:26:27.207Z,23.85
2023-03-24T10:29:23.911Z,23.61
2023-03-24T10:31:59.507Z,23.13
2023-03-24T10:34:31.057Z,23.02
2023-03-24T10:37:03.142Z,23.42
2023-03-24T10:39:44.233Z,23.36
2023-03-24T10:42:26.718Z,23.38
2023-03-24T10:44:54.999Z,24.02
2023-03-24T10:47:27.429Z,24.25
2023-03-24T10:50:12.704Z,24.35
2023-03-24T10:52:45.668Z,24.82
2023-03-24T10:55:19.988Z,24.90
2023-03-24T10:57:51.340Z,24.62
2023-03-24T11:00:27.006Z,24.76
2023-03-24T11:03:01.905Z,24.67
2023-03-24T11:05:33.623Z,24.84
2023-03-24T11:08:37.334Z,24.75
2023-03-24T11:11:15.752Z,24.59
2023-03-24T11:13:57.196Z,24.19
2023-03-24T11:16:44.273Z,23.52
2023-03-24T11:19:23.596Z,23.82
2023-03-24T11:21:57.584Z,23.80
2023-03-24T11:24:28.110Z,23.69
2023-03-24T11:27:00.721Z,23.63
2023-03-24T11:29:30.883Z,23.57
2023-03-24T11:32:02.061Z,23.53
2023-03-24T11:34:39.036Z,23.13
2023-03-24T11:37:33.624Z,23.87
2023-03-24T11:40:13.543Z,23.67
2023-03-24T11:42:45.977Z,23.29
2023-03-24T11:45:38.213Z,23.05
2023-03-24T11:48:26.678Z,22.69
2023-03-24T11:50:57.776Z,22.86
2023-03-24T11:53:51.842Z,22.47
2023-03-24T11:56:56.773Z,22.75
2023-03-24T11:59:24.731Z,23.35
2023-03-24T12:02:07.898Z,23.94
2023-03-24T12:04:59.863Z,24.27
2023-03-24T12:07:43.533Z,24.59
2023-03-24T12:10:39.336Z,24.51
2023-03-24T12:13:32.424Z,24.49
2023-03-24T12:16:24.168Z,24.88
2023-03-24T12:19:21.920Z,24.79
2023-03-24T12:22:23.256Z,24.68
2023-03-24T12:25:17.482Z,25.12
2023-03-24T12:27:46.299Z,24.74
2023-03-24T12:30:29.133Z,24.35
2023-03-24T12:33:29.020Z,23.28
2023-03-24T12:36:02.353Z,23.13
2023-03-24T12:39:05.344Z,22.91
2023-03-24T12:41:33.430Z,22.57
2023-03-24T12:44:30.104Z,22.34
2023-03-24T12:47:21.810Z,22.03
2023-03-24T12:49:57.671Z,21.77
2023-03-24T12:55:51.988Z,22.20
2023-03-24T12:58:22.996Z,22.21
2023-03-24T13:01:13.554Z,22.34
2023-03-24T13:03:45.759Z,22.19
2023-03-24T13:06:23.196Z,22.18
2023-03-24T13:09:32.005Z,22.09
2023-03-24T13:12:10.755Z,22.15
2023-03-24T13:15:00.665Z,22.11
2023-03-24T13:17:35.141Z,21.14
2023-03-24T13:20:08.413Z,20.65
2023-03-24T13:22:38.577Z,20.83
2023-03-24T13:25:31.398Z,20.60
2023-03-24T13:28:07.444Z,20.80
2023-03-24T13:30:38.805Z,20.96
2023-03-24T13:33:19.139Z,21.18
2023-03-24T13:36:02.023Z,21.35
2023-03-24T13:38:46.998Z,21.43
2023-03-24T13:41:22.174Z,21.39
2023-03-24T13:43:58.320Z,21.55
2023-03-24T13:46:27.053Z,21.17
2023-03-24T13:49:01.166Z,21.38
2023-03-24T13:51:40.533Z,21.55
2023-03-24T13:54:19.516Z,21.71
2023-03-24T13:57:05.800Z,21.71
2023-03-24T14:00:02.527Z,21.50
2023-03-24T14:02:52.939Z,21.51
2023-03-24T14:05:26.723Z,21.47
2023-03-24T14:08:01.353Z,21.26
2023-03-24T14:10:41.180Z,20.69
2023-03-24T14:13:12.199Z,20.66
2023-03-24T14:15:52.497Z,20.90
2023-03-24T14:18:23.505Z,20.69
2023-03-24T14:20:57.804Z,20.57
2023-03-24T14:23:40.587Z,20.57
2023-03-24T14:26:21.765Z,20.70
2023-03-24T14:28:54.836Z,20.58
2023-03-24T14:31:33.769Z,20.45
2023-03-24T14:34:25.637Z,20.56
2023-03-24T14:37:04.098Z,20.65
2023-03-24T14:39:44.946Z,20.51
2023-03-24T14:42:29.741Z,20.50
2023-03-24T14:45:07.511Z,20.90
2023-03-24T14:47:42.857Z,20.84
2023-03-24T14:50:13.561Z,20.70
2023-03-24T14:52:45.967Z,20.72
2023-03-24T14:55:20.128Z,20.52
2023-03-24T14:57:53.496Z,20.58
2023-03-24T15:00:42.254Z,20.39
2023-03-24T15:03:40.403Z,20.47
2023-03-24T15:06:11.407Z,20.43
2023-03-24T15:08:39.484Z,20.48
2023-03-24T15:11:10.604Z,20.40
2023-03-24T15:13:45.880Z,20.51
2023-03-24T15:16:14.138Z,20.51
2023-03-24T15:19:20.251Z,20.36
2023-03-24T15:21:51.348Z,20.21
2023-03-24T15:24:22.986Z,20.11
2023-03-24T15:27:04.750Z,19.94
2023-03-24T15:29:34.447Z,20.13
2023-03-24T15:32:02.867Z,19.96
2023-03-24T15:34:34.324Z,19.93
2023-03-24T15:37:05.892Z,19.34
2023-03-24T15:39:39.177Z,19.58
2023-03-24T15:42:14.740Z,19.63
2023-03-24T15:44:43.090Z,19.62
2023-03-24T15:47:22.276Z,19.05
2023-03-24T15:49:56.550Z,19.59
2023-03-24T15:52:36.912Z,18.94
2023-03-24T15:55:29.559Z,18.64
2023-03-24T15:58:01.950Z,18.86
2023-03-24T16:00:39.373Z,18.97
2023-03-24T16:03:08.503Z,18.99
2023-03-24T16:05:45.898Z,18.93
2023-03-24T16:08:39.416Z,18.85
2023-03-24T16:11:13.077Z,18.84
2023-03-24T16:13:45.186Z,18.68
2023-03-24T16:16:16.367Z,18.64
2023-03-24T16:18:47.315Z,18.48
2023-03-24T16:21:20.492Z,18.32
2023-03-24T16:23:51.304Z,18.24
2023-03-24T16:26:24.677Z,18.16
2023-03-24T16:28:54.011Z,17.97
2023-03-24T16:31:31.444Z,17.79
2023-03-24T16:33:59.763Z,17.71
2023-03-24T16:36:28.642Z,17.52
2023-03-24T16:38:59.080Z,17.39
2023-03-24T16:41:28.618Z,17.37
2023-03-24T16:43:56.931Z,17.20
2023-03-24T16:46:28.110Z,17.05
2023-03-24T16:48:56.548Z,17.02
2023-03-24T16:51:25.061Z,16.84
2023-03-24T16:53:54.139Z,16.77
2023-03-24T16:56:23.349Z,16.37
2023-03-24T16:58:56.721Z,16.18
2023-03-24T17:01:39.909Z,15.77
2023-03-24T17:04:22.733Z,15.68
2023-03-24T17:06:54.684Z,15.57
2023-03-24T17:09:23.322Z,15.58
2023-03-24T17:11:57.708Z,15.46
2023-03-24T17:14:26.355Z,15.35
2023-03-24T17:16:54.589Z,15.18
2023-03-24T17:19:25.041Z,15.36
2023-03-24T17:22:05.122Z,15.36
2023-03-24T17:24:42.072Z,14.86
2023-03-24T17:27:18.264Z,14.82
2023-03-24T17:29:46.853Z,14.77
2023-03-24T17:32:15.141Z,14.75
2023-03-24T17:34:45.190Z,14.69
2023-03-24T17:37:13.750Z,14.50
2023-03-24T17:39:42.422Z,14.41
2023-03-24T17:42:10.817Z,14.22
2023-03-24T17:44:39.377Z,14.31
2023-03-24T17:47:07.884Z,14.35
2023-03-24T17:49:37.716Z,14.47
2023-03-24T17:52:06.435Z,14.48
2023-03-24T17:54:34.880Z,14.42
2023-03-24T17:57:03.441Z,14.39
2023-03-24T17:59:32.010Z,14.31
2023-03-24T18:02:00.663Z,14.28
2023-03-24T18:04:29.347Z,14.21
2023-03-24T18:06:57.679Z,14.02
2023-03-24T18:09:27.286Z,13.84
2023-03-24T18:11:55.480Z,13.75
2023-03-24T18:14:23.386Z,13.75
2023-03-24T18:16:51.352Z,13.66
2023-03-24T18:19:19.531Z,13.49
2023-03-24T18:21:47.630Z,13.45
2023-03-24T18:24:16.230Z,13.35
2023-03-24T18:26:44.150Z,13.25
2023-03-24T18:29:12.603Z,13.11
2023-03-24T18:31:40.757Z,12.97
2023-03-24T18:34:08.912Z,12.88
2023-03-24T18:36:37.056Z,12.95
2023-03-24T18:39:08.107Z,12.91
2023-03-24T18:41:39.734Z,12.90
2023-03-24T18:44:11.458Z,12.80
2023-03-24T18:46:39.720Z,12.56
2023-03-24T18:49:08.238Z,12.51
2023-03-24T18:51:36.389Z,12.47
2023-03-24T18:54:04.563Z,12.45
2023-03-24T18:56:32.892Z,12.45
2023-03-24T18:59:01.102Z,12.38
2023-03-24T19:01:30.482Z,12.34
2023-03-24T19:03:58.469Z,12.14
2023-03-24T19:06:31.486Z,12.19
2023-03-24T19:09:00.008Z,12.08
2023-03-24T19:11:28.101Z,11.90
2023-03-24T19:13:57.221Z,11.91
2023-03-24T19:16:26.280Z,11.83
2023-03-24T19:18:58.081Z,11.81
2023-03-24T19:21:27.758Z,11.63
2023-03-24T19:23:57.211Z,11.51
2023-03-24T19:26:26.212Z,11.47
2023-03-24T19:28:54.326Z,11.43
2023-03-24T19:31:24.916Z,11.29
2023-03-24T19:33:53.884Z,11.19
2023-03-24T19:36:21.672Z,11.15
2023-03-24T19:38:49.701Z,10.94
2023-03-24T19:41:17.692Z,10.98
2023-03-24T19:43:45.984Z,10.92
2023-03-24T19:46:14.009Z,10.88
2023-03-24T19:48:41.942Z,10.86
2023-03-24T19:51:09.873Z,10.79
2023-03-24T19:53:38.119Z,10.66
2023-03-24T19:56:06.826Z,10.75
2023-03-24T19:58:35.636Z,10.67
2023-03-24T20:01:04.209Z,10.64
2023-03-24T20:03:32.491Z,10.58
2023-03-24T20:06:05.381Z,10.59
2023-03-24T20:08:33.422Z,10.48
2023-03-24T20:11:03.907Z,10.33
2023-03-24T20:13:31.954Z,10.37
2023-03-24T20:15:59.967Z,10.21
2023-03-24T20:18:28.128Z,10.22
2023-03-24T20:20:57.241Z,10.12
2023-03-24T20:23:25.135Z,10.16
2023-03-24T20:25:53.390Z,10.09
2023-03-24T20:28:21.526Z,10.13
2023-03-24T20:30:49.634Z,10.00
2023-03-24T20:33:17.606Z,9.99
2023-03-24T20:35:45.985Z,9.93
2023-03-24T20:38:14.148Z,9.86
2023-03-24T20:40:42.142Z,9.80
2023-03-24T20:43:10.188Z,9.80
2023-03-24T20:45:41.279Z,9.77
2023-03-24T20:48:09.596Z,9.74
2023-03-24T20:50:38.442Z,9.70
2023-03-24T20:53:07.800Z,9.63
2023-03-24T20:55:36.719Z,9.40
2023-03-24T20:58:08.618Z,9.29
2023-03-24T21:00:46.329Z,9.29
2023-03-24T21:03:15.086Z,9.28
2023-03-24T21:05:43.684Z,9.29
2023-03-24T21:08:12.165Z,9.26
2023-03-24T21:10:40.931Z,9.23
2023-03-24T21:13:09.330Z,9.06
2023-03-24T21:15:45.536Z,9.10
2023-03-24T21:18:14.143Z,9.11
2023-03-24T21:20:56.428Z,9.04
2023-03-24T21:23:25.487Z,9.03
2023-03-24T21:25:53.796Z,8.92
2023-03-24T21:28:22.576Z,8.87
2023-03-24T21:30:51.035Z,8.77
2023-03-24T21:33:19.618Z,8.76
2023-03-24T21:35:47.916Z,8.72
2023-03-24T21:38:16.516Z,8.68
2023-03-24T21:40:44.835Z,8.65
2023-03-24T21:43:15.081Z,8.58
2023-03-24T21:45:46.597Z,8.54
2023-03-24T21:48:16.593Z,8.28
2023-03-24T21:50:44.785Z,8.23
2023-03-24T21:53:15.461Z,8.28
2023-03-24T21:56:04.863Z,8.33
2023-03-24T21:58:33.860Z,8.24
2023-03-24T22:01:02.565Z,8.17
2023-03-24T22:03:34.739Z,8.18
2023-03-24T22:06:05.698Z,8.09
2023-03-24T22:08:34.267Z,8.15
2023-03-24T22:11:04.599Z,8.13
2023-03-24T22:13:33.650Z,8.11
2023-03-24T22:16:02.790Z,8.08
2023-03-24T22:18:32.794Z,8.07
2023-03-24T22:21:13.115Z,7.87
2023-03-24T22:23:42.970Z,7.85
2023-03-24T22:26:17.090Z,7.89
2023-03-24T22:28:45.621Z,7.72
2023-03-24T22:31:16.941Z,7.78
2023-03-24T22:33:45.645Z,7.77
2023-03-24T22:36:13.610Z,7.78
2023-03-24T22:38:42.535Z,7.72
2023-03-24T22:41:13.034Z,7.67
2023-03-24T22:43:42.068Z,7.66
2023-03-24T22:46:11.393Z,7.61
2023-03-24T22:48:39.465Z,7.50
2023-03-24T22:51:08.992Z,7.50
2023-03-24T22:53:37.112Z,7.40
2023-03-24T22:56:06.444Z,7.42
2023-03-24T22:58:36.009Z,7.30
2023-03-24T23:01:05.007Z,7.16
2023-03-24T23:03:33.687Z,7.26
2023-03-24T23:06:02.796Z,7.25
2023-03-24T23:08:32.911Z,7.29
2023-03-24T23:11:01.235Z,7.29
2023-03-24T23:13:30.957Z,7.10
2023-03-24T23:15:59.245Z,7.14
2023-03-24T23:18:27.180Z,7.11
2023-03-24T23:21:03.504Z,7.12
2023-03-24T23:23:31.957Z,7.07
2023-03-24T23:26:00.326Z,7.09
2023-03-24T23:37:50.717Z,6.41
2023-03-24T23:40:19.402Z,6.31
2023-03-24T23:42:48.531Z,6.41
2023-03-24T23:45:18.269Z,6.41
2023-03-24T23:47:49.909Z,6.49
2023-03-24T23:50:19.340Z,6.57
2023-03-24T23:52:48.119Z,6.49
2023-03-24T23:55:18.176Z,6.41
2023-03-24T23:57:46.929Z,6.56
